sensor_id;sensor_type;location;lat;lon;timestamp;P1;durP1;ratioP1;P2;durP2;ratioP2
7487;SDS011;3785;52.260;4.728;2023-04-24T00:00:29;0.50;;;0.40;;
7487;SDS011;3785;52.260;4.728;2023-04-24T00:03:51;0.75;;;0.38;;
7487;SDS011;3785;52.260;4.728;2023-04-24T00:07:11;0.40;;;0.30;;
7487;SDS011;3785;52.260;4.728;2023-04-24T00:10:33;1.05;;;0.20;;
7487;SDS011;3785;52.260;4.728;2023-04-24T00:13:53;1.02;;;0.30;;
7487;SDS011;3785;52.260;4.728;2023-04-24T00:17:14;0.90;;;0.40;;
7487;SDS011;3785;52.260;4.728;2023-04-24T00:20:34;0.30;;;0.28;;
7487;SDS011;3785;52.260;4.728;2023-04-24T00:23:58;0.43;;;0.40;;
7487;SDS011;3785;52.260;4.728;2023-04-24T00:27:18;0.50;;;0.40;;
7487;SDS011;3785;52.260;4.728;2023-04-24T00:30:39;0.57;;;0.45;;
7487;SDS011;3785;52.260;4.728;2023-04-24T00:34:00;0.45;;;0.40;;
7487;SDS011;3785;52.260;4.728;2023-04-24T00:37:22;0.57;;;0.40;;
7487;SDS011;3785;52.260;4.728;2023-04-24T00:40:42;0.77;;;0.40;;
7487;SDS011;3785;52.260;4.728;2023-04-24T00:44:03;0.45;;;0.25;;
7487;SDS011;3785;52.260;4.728;2023-04-24T00:47:23;2.10;;;0.20;;
7487;SDS011;3785;52.260;4.728;2023-04-24T00:50:45;0.40;;;0.22;;
7487;SDS011;3785;52.260;4.728;2023-04-24T00:54:06;0.50;;;0.38;;
7487;SDS011;3785;52.260;4.728;2023-04-24T00:57:27;0.82;;;0.40;;
7487;SDS011;3785;52.260;4.728;2023-04-24T01:00:48;0.85;;;0.40;;
7487;SDS011;3785;52.260;4.728;2023-04-24T01:04:10;1.63;;;0.60;;
7487;SDS011;3785;52.260;4.728;2023-04-24T01:07:31;1.25;;;0.68;;
7487;SDS011;3785;52.260;4.728;2023-04-24T01:10:52;0.73;;;0.50;;
7487;SDS011;3785;52.260;4.728;2023-04-24T01:14:12;0.90;;;0.60;;
7487;SDS011;3785;52.260;4.728;2023-04-24T01:17:33;0.77;;;0.40;;
7487;SDS011;3785;52.260;4.728;2023-04-24T01:20:56;1.13;;;0.47;;
7487;SDS011;3785;52.260;4.728;2023-04-24T01:24:18;0.68;;;0.50;;
7487;SDS011;3785;52.260;4.728;2023-04-24T01:27:39;0.95;;;0.50;;
7487;SDS011;3785;52.260;4.728;2023-04-24T01:31:00;1.60;;;0.50;;
7487;SDS011;3785;52.260;4.728;2023-04-24T01:34:20;0.40;;;0.30;;
7487;SDS011;3785;52.260;4.728;2023-04-24T01:37:41;0.43;;;0.32;;
7487;SDS011;3785;52.260;4.728;2023-04-24T01:41:01;1.63;;;0.50;;
7487;SDS011;3785;52.260;4.728;2023-04-24T01:44:22;0.80;;;0.43;;
7487;SDS011;3785;52.260;4.728;2023-04-24T01:47:43;1.08;;;0.45;;
7487;SDS011;3785;52.260;4.728;2023-04-24T01:51:04;1.20;;;0.70;;
7487;SDS011;3785;52.260;4.728;2023-04-24T01:54:24;1.05;;;0.52;;
7487;SDS011;3785;52.260;4.728;2023-04-24T01:57:45;1.13;;;0.65;;
7487;SDS011;3785;52.260;4.728;2023-04-24T02:01:06;2.50;;;0.82;;
7487;SDS011;3785;52.260;4.728;2023-04-24T02:04:27;1.23;;;0.80;;
7487;SDS011;3785;52.260;4.728;2023-04-24T02:07:47;1.15;;;0.73;;
7487;SDS011;3785;52.260;4.728;2023-04-24T02:11:08;1.08;;;0.57;;
7487;SDS011;3785;52.260;4.728;2023-04-24T02:14:29;0.70;;;0.50;;
7487;SDS011;3785;52.260;4.728;2023-04-24T02:17:50;0.82;;;0.45;;
7487;SDS011;3785;52.260;4.728;2023-04-24T02:21:10;1.00;;;0.38;;
7487;SDS011;3785;52.260;4.728;2023-04-24T02:24:31;0.38;;;0.30;;
7487;SDS011;3785;52.260;4.728;2023-04-24T02:27:51;0.50;;;0.30;;
7487;SDS011;3785;52.260;4.728;2023-04-24T02:31:12;1.35;;;0.40;;
7487;SDS011;3785;52.260;4.728;2023-04-24T02:34:32;0.60;;;0.40;;
7487;SDS011;3785;52.260;4.728;2023-04-24T02:37:53;0.40;;;0.38;;
7487;SDS011;3785;52.260;4.728;2023-04-24T02:41:14;0.30;;;0.30;;
7487;SDS011;3785;52.260;4.728;2023-04-24T02:44:34;2.45;;;0.50;;
7487;SDS011;3785;52.260;4.728;2023-04-24T02:47:55;0.82;;;0.50;;
7487;SDS011;3785;52.260;4.728;2023-04-24T02:51:15;1.92;;;0.60;;
7487;SDS011;3785;52.260;4.728;2023-04-24T02:54:36;1.15;;;0.60;;
7487;SDS011;3785;52.260;4.728;2023-04-24T02:57:57;0.77;;;0.57;;
7487;SDS011;3785;52.260;4.728;2023-04-24T03:01:17;1.23;;;0.63;;
7487;SDS011;3785;52.260;4.728;2023-04-24T03:04:38;2.08;;;0.60;;
7487;SDS011;3785;52.260;4.728;2023-04-24T03:07:59;1.02;;;0.77;;
7487;SDS011;3785;52.260;4.728;2023-04-24T03:11:20;0.88;;;0.60;;
7487;SDS011;3785;52.260;4.728;2023-04-24T03:14:40;1.85;;;0.52;;
7487;SDS011;3785;52.260;4.728;2023-04-24T03:18:01;0.57;;;0.38;;
7487;SDS011;3785;52.260;4.728;2023-04-24T03:21:22;1.35;;;0.40;;
7487;SDS011;3785;52.260;4.728;2023-04-24T03:24:43;1.38;;;0.50;;
7487;SDS011;3785;52.260;4.728;2023-04-24T03:28:03;0.35;;;0.22;;
7487;SDS011;3785;52.260;4.728;2023-04-24T03:31:24;0.32;;;0.30;;
7487;SDS011;3785;52.260;4.728;2023-04-24T03:34:45;0.25;;;0.20;;
7487;SDS011;3785;52.260;4.728;2023-04-24T03:38:05;0.85;;;0.30;;
7487;SDS011;3785;52.260;4.728;2023-04-24T03:41:26;0.32;;;0.17;;
7487;SDS011;3785;52.260;4.728;2023-04-24T03:44:46;0.30;;;0.20;;
7487;SDS011;3785;52.260;4.728;2023-04-24T03:48:07;0.45;;;0.25;;
7487;SDS011;3785;52.260;4.728;2023-04-24T03:51:27;0.38;;;0.25;;
7487;SDS011;3785;52.260;4.728;2023-04-24T03:54:50;0.30;;;0.20;;
7487;SDS011;3785;52.260;4.728;2023-04-24T03:58:10;0.13;;;0.13;;
7487;SDS011;3785;52.260;4.728;2023-04-24T04:01:31;1.40;;;0.30;;
7487;SDS011;3785;52.260;4.728;2023-04-24T04:04:52;1.48;;;0.20;;
7487;SDS011;3785;52.260;4.728;2023-04-24T04:08:12;1.65;;;0.70;;
7487;SDS011;3785;52.260;4.728;2023-04-24T04:11:33;0.63;;;0.20;;
7487;SDS011;3785;52.260;4.728;2023-04-24T04:14:53;0.75;;;0.20;;
7487;SDS011;3785;52.260;4.728;2023-04-24T04:18:15;0.20;;;0.20;;
7487;SDS011;3785;52.260;4.728;2023-04-24T04:21:35;0.10;;;0.10;;
7487;SDS011;3785;52.260;4.728;2023-04-24T04:24:56;0.90;;;0.38;;
7487;SDS011;3785;52.260;4.728;2023-04-24T04:28:17;0.32;;;0.10;;
7487;SDS011;3785;52.260;4.728;2023-04-24T04:31:39;0.20;;;0.20;;
7487;SDS011;3785;52.260;4.728;2023-04-24T04:35:00;0.55;;;0.30;;
7487;SDS011;3785;52.260;4.728;2023-04-24T04:38:23;0.98;;;0.30;;
7487;SDS011;3785;52.260;4.728;2023-04-24T04:41:43;0.43;;;0.30;;
7487;SDS011;3785;52.260;4.728;2023-04-24T04:45:04;0.98;;;0.35;;
7487;SDS011;3785;52.260;4.728;2023-04-24T04:48:25;0.22;;;0.20;;
7487;SDS011;3785;52.260;4.728;2023-04-24T04:51:45;0.68;;;0.28;;
7487;SDS011;3785;52.260;4.728;2023-04-24T04:55:07;1.40;;;0.40;;
7487;SDS011;3785;52.260;4.728;2023-04-24T04:58:27;0.63;;;0.32;;
7487;SDS011;3785;52.260;4.728;2023-04-24T05:01:48;0.40;;;0.40;;
7487;SDS011;3785;52.260;4.728;2023-04-24T05:05:09;0.70;;;0.50;;
7487;SDS011;3785;52.260;4.728;2023-04-24T05:08:30;0.95;;;0.60;;
7487;SDS011;3785;52.260;4.728;2023-04-24T05:11:50;2.10;;;1.08;;
7487;SDS011;3785;52.260;4.728;2023-04-24T05:15:11;2.67;;;1.10;;
7487;SDS011;3785;52.260;4.728;2023-04-24T05:18:31;1.75;;;0.88;;
7487;SDS011;3785;52.260;4.728;2023-04-24T05:21:52;3.05;;;1.75;;
7487;SDS011;3785;52.260;4.728;2023-04-24T05:25:13;6.30;;;2.72;;
7487;SDS011;3785;52.260;4.728;2023-04-24T05:28:33;7.15;;;4.00;;
7487;SDS011;3785;52.260;4.728;2023-04-24T05:31:56;8.55;;;4.53;;
7487;SDS011;3785;52.260;4.728;2023-04-24T05:35:17;9.30;;;5.60;;
7487;SDS011;3785;52.260;4.728;2023-04-24T05:38:38;7.85;;;4.75;;
7487;SDS011;3785;52.260;4.728;2023-04-24T05:41:59;8.68;;;4.75;;
7487;SDS011;3785;52.260;4.728;2023-04-24T05:45:21;12.18;;;5.57;;
7487;SDS011;3785;52.260;4.728;2023-04-24T05:48:41;8.82;;;4.88;;
7487;SDS011;3785;52.260;4.728;2023-04-24T05:52:02;6.72;;;4.43;;
7487;SDS011;3785;52.260;4.728;2023-04-24T05:55:24;8.35;;;4.90;;
7487;SDS011;3785;52.260;4.728;2023-04-24T05:58:46;8.02;;;4.53;;
7487;SDS011;3785;52.260;4.728;2023-04-24T06:02:07;6.97;;;4.35;;
7487;SDS011;3785;52.260;4.728;2023-04-24T06:05:27;7.32;;;3.63;;
7487;SDS011;3785;52.260;4.728;2023-04-24T06:08:48;10.73;;;4.43;;
7487;SDS011;3785;52.260;4.728;2023-04-24T06:12:08;7.35;;;3.90;;
7487;SDS011;3785;52.260;4.728;2023-04-24T06:15:29;10.20;;;4.90;;
7487;SDS011;3785;52.260;4.728;2023-04-24T06:18:50;10.18;;;4.53;;
7487;SDS011;3785;52.260;4.728;2023-04-24T06:22:11;6.25;;;4.00;;
7487;SDS011;3785;52.260;4.728;2023-04-24T06:25:32;10.23;;;4.32;;
7487;SDS011;3785;52.260;4.728;2023-04-24T06:28:52;8.40;;;3.97;;
7487;SDS011;3785;52.260;4.728;2023-04-24T06:32:13;4.57;;;3.22;;
7487;SDS011;3785;52.260;4.728;2023-04-24T06:35:34;7.97;;;3.80;;
7487;SDS011;3785;52.260;4.728;2023-04-24T06:38:55;6.47;;;3.42;;
7487;SDS011;3785;52.260;4.728;2023-04-24T06:42:17;6.20;;;3.35;;
7487;SDS011;3785;52.260;4.728;2023-04-24T06:45:38;8.57;;;3.55;;
7487;SDS011;3785;52.260;4.728;2023-04-24T06:48:59;5.38;;;2.33;;
7487;SDS011;3785;52.260;4.728;2023-04-24T06:52:20;10.27;;;3.80;;
7487;SDS011;3785;52.260;4.728;2023-04-24T06:55:41;5.57;;;2.65;;
7487;SDS011;3785;52.260;4.728;2023-04-24T06:59:03;6.43;;;2.95;;
7487;SDS011;3785;52.260;4.728;2023-04-24T07:02:23;5.72;;;3.35;;
7487;SDS011;3785;52.260;4.728;2023-04-24T07:05:44;10.02;;;4.18;;
7487;SDS011;3785;52.260;4.728;2023-04-24T07:09:06;10.82;;;3.38;;
7487;SDS011;3785;52.260;4.728;2023-04-24T07:12:28;9.65;;;2.90;;
7487;SDS011;3785;52.260;4.728;2023-04-24T07:15:49;6.95;;;2.25;;
7487;SDS011;3785;52.260;4.728;2023-04-24T07:19:12;11.45;;;2.45;;
7487;SDS011;3785;52.260;4.728;2023-04-24T07:22:33;6.38;;;2.22;;
7487;SDS011;3785;52.260;4.728;2023-04-24T07:25:54;6.40;;;2.03;;
7487;SDS011;3785;52.260;4.728;2023-04-24T07:29:14;5.55;;;1.90;;
7487;SDS011;3785;52.260;4.728;2023-04-24T07:32:35;6.93;;;2.70;;
7487;SDS011;3785;52.260;4.728;2023-04-24T07:35:56;7.88;;;1.92;;
7487;SDS011;3785;52.260;4.728;2023-04-24T07:39:16;6.30;;;2.10;;
7487;SDS011;3785;52.260;4.728;2023-04-24T07:42:37;5.88;;;1.55;;
7487;SDS011;3785;52.260;4.728;2023-04-24T07:45:58;10.85;;;1.88;;
7487;SDS011;3785;52.260;4.728;2023-04-24T07:49:18;6.43;;;1.42;;
7487;SDS011;3785;52.260;4.728;2023-04-24T07:52:39;3.88;;;1.55;;
7487;SDS011;3785;52.260;4.728;2023-04-24T07:56:00;4.15;;;1.35;;
7487;SDS011;3785;52.260;4.728;2023-04-24T07:59:20;5.55;;;1.25;;
7487;SDS011;3785;52.260;4.728;2023-04-24T08:02:41;9.50;;;1.58;;
7487;SDS011;3785;52.260;4.728;2023-04-24T08:06:01;6.93;;;1.48;;
7487;SDS011;3785;52.260;4.728;2023-04-24T08:09:22;7.38;;;1.67;;
7487;SDS011;3785;52.260;4.728;2023-04-24T08:12:42;8.35;;;1.50;;
7487;SDS011;3785;52.260;4.728;2023-04-24T08:16:03;8.60;;;2.08;;
7487;SDS011;3785;52.260;4.728;2023-04-24T08:19:24;3.00;;;1.67;;
7487;SDS011;3785;52.260;4.728;2023-04-24T08:22:45;6.75;;;1.63;;
7487;SDS011;3785;52.260;4.728;2023-04-24T08:26:07;6.40;;;1.88;;
7487;SDS011;3785;52.260;4.728;2023-04-24T08:29:27;4.53;;;1.90;;
7487;SDS011;3785;52.260;4.728;2023-04-24T08:32:48;2.40;;;1.33;;
7487;SDS011;3785;52.260;4.728;2023-04-24T08:36:08;7.32;;;1.30;;
7487;SDS011;3785;52.260;4.728;2023-04-24T08:39:29;4.47;;;1.42;;
7487;SDS011;3785;52.260;4.728;2023-04-24T08:42:51;5.63;;;1.90;;
7487;SDS011;3785;52.260;4.728;2023-04-24T08:46:15;5.97;;;1.50;;
7487;SDS011;3785;52.260;4.728;2023-04-24T08:49:36;6.18;;;1.63;;
7487;SDS011;3785;52.260;4.728;2023-04-24T08:52:57;4.50;;;1.83;;
7487;SDS011;3785;52.260;4.728;2023-04-24T08:56:18;5.00;;;1.92;;
7487;SDS011;3785;52.260;4.728;2023-04-24T08:59:39;2.58;;;1.30;;
7487;SDS011;3785;52.260;4.728;2023-04-24T09:03:00;3.15;;;1.42;;
7487;SDS011;3785;52.260;4.728;2023-04-24T09:06:22;3.53;;;1.15;;
7487;SDS011;3785;52.260;4.728;2023-04-24T09:09:43;3.60;;;1.58;;
7487;SDS011;3785;52.260;4.728;2023-04-24T09:13:04;4.00;;;1.45;;
7487;SDS011;3785;52.260;4.728;2023-04-24T09:16:25;5.82;;;0.85;;
7487;SDS011;3785;52.260;4.728;2023-04-24T09:19:46;5.18;;;1.45;;
7487;SDS011;3785;52.260;4.728;2023-04-24T09:23:07;2.70;;;1.10;;
7487;SDS011;3785;52.260;4.728;2023-04-24T09:26:30;2.10;;;0.70;;
7487;SDS011;3785;52.260;4.728;2023-04-24T09:29:55;2.67;;;0.60;;
7487;SDS011;3785;52.260;4.728;2023-04-24T09:33:16;0.52;;;0.40;;
7487;SDS011;3785;52.260;4.728;2023-04-24T09:36:38;0.98;;;0.55;;
7487;SDS011;3785;52.260;4.728;2023-04-24T09:40:10;2.20;;;0.70;;
7487;SDS011;3785;52.260;4.728;2023-04-24T09:43:37;2.75;;;0.60;;
7487;SDS011;3785;52.260;4.728;2023-04-24T09:46:58;1.88;;;0.60;;
7487;SDS011;3785;52.260;4.728;2023-04-24T09:50:19;1.45;;;0.40;;
7487;SDS011;3785;52.260;4.728;2023-04-24T09:53:44;2.75;;;0.63;;
7487;SDS011;3785;52.260;4.728;2023-04-24T09:57:09;2.45;;;0.95;;
7487;SDS011;3785;52.260;4.728;2023-04-24T10:00:30;2.90;;;0.52;;
7487;SDS011;3785;52.260;4.728;2023-04-24T10:03:52;1.50;;;0.60;;
7487;SDS011;3785;52.260;4.728;2023-04-24T10:07:12;3.33;;;0.85;;
7487;SDS011;3785;52.260;4.728;2023-04-24T10:10:39;2.85;;;0.40;;
7487;SDS011;3785;52.260;4.728;2023-04-24T10:14:04;2.63;;;0.52;;
7487;SDS011;3785;52.260;4.728;2023-04-24T10:17:25;3.83;;;0.98;;
7487;SDS011;3785;52.260;4.728;2023-04-24T10:20:46;1.92;;;0.47;;
7487;SDS011;3785;52.260;4.728;2023-04-24T10:24:07;1.50;;;0.70;;
7487;SDS011;3785;52.260;4.728;2023-04-24T10:27:31;3.03;;;0.57;;
7487;SDS011;3785;52.260;4.728;2023-04-24T10:30:52;0.88;;;0.40;;
7487;SDS011;3785;52.260;4.728;2023-04-24T10:34:15;1.15;;;0.30;;
7487;SDS011;3785;52.260;4.728;2023-04-24T10:37:40;1.02;;;0.40;;
7487;SDS011;3785;52.260;4.728;2023-04-24T10:41:09;1.48;;;0.45;;
7487;SDS011;3785;52.260;4.728;2023-04-24T10:44:36;0.55;;;0.30;;
7487;SDS011;3785;52.260;4.728;2023-04-24T10:47:58;1.85;;;0.45;;
7487;SDS011;3785;52.260;4.728;2023-04-24T10:51:46;0.57;;;0.30;;
7487;SDS011;3785;52.260;4.728;2023-04-24T10:55:08;2.72;;;0.50;;
7487;SDS011;3785;52.260;4.728;2023-04-24T10:58:35;1.08;;;0.38;;
7487;SDS011;3785;52.260;4.728;2023-04-24T11:01:58;1.90;;;0.60;;
7487;SDS011;3785;52.260;4.728;2023-04-24T11:05:19;1.13;;;0.40;;
7487;SDS011;3785;52.260;4.728;2023-04-24T11:08:44;3.50;;;0.80;;
7487;SDS011;3785;52.260;4.728;2023-04-24T11:12:06;1.77;;;0.60;;
7487;SDS011;3785;52.260;4.728;2023-04-24T11:15:30;1.55;;;0.50;;
7487;SDS011;3785;52.260;4.728;2023-04-24T11:19:01;2.55;;;0.77;;
7487;SDS011;3785;52.260;4.728;2023-04-24T11:22:29;4.30;;;0.70;;
7487;SDS011;3785;52.260;4.728;2023-04-24T11:33:15;1.88;;;0.98;;
7487;SDS011;3785;52.260;4.728;2023-04-24T11:36:42;3.92;;;0.90;;
7487;SDS011;3785;52.260;4.728;2023-04-24T11:40:08;5.47;;;0.82;;
7487;SDS011;3785;52.260;4.728;2023-04-24T11:43:29;4.22;;;0.95;;
7487;SDS011;3785;52.260;4.728;2023-04-24T11:46:50;3.60;;;0.98;;
7487;SDS011;3785;52.260;4.728;2023-04-24T11:50:11;5.60;;;1.10;;
7487;SDS011;3785;52.260;4.728;2023-04-24T11:53:33;4.03;;;0.98;;
7487;SDS011;3785;52.260;4.728;2023-04-24T11:56:53;3.53;;;1.52;;
7487;SDS011;3785;52.260;4.728;2023-04-24T12:00:16;2.75;;;0.90;;
7487;SDS011;3785;52.260;4.728;2023-04-24T12:03:38;5.38;;;1.10;;
7487;SDS011;3785;52.260;4.728;2023-04-24T12:06:59;2.85;;;1.00;;
7487;SDS011;3785;52.260;4.728;2023-04-24T12:10:21;3.70;;;1.10;;
7487;SDS011;3785;52.260;4.728;2023-04-24T12:13:42;6.03;;;1.25;;
7487;SDS011;3785;52.260;4.728;2023-04-24T12:17:03;3.75;;;1.35;;
7487;SDS011;3785;52.260;4.728;2023-04-24T12:20:28;4.60;;;1.00;;
7487;SDS011;3785;52.260;4.728;2023-04-24T12:23:50;5.68;;;1.52;;
7487;SDS011;3785;52.260;4.728;2023-04-24T12:27:18;6.70;;;1.30;;
7487;SDS011;3785;52.260;4.728;2023-04-24T12:30:41;4.40;;;1.00;;
7487;SDS011;3785;52.260;4.728;2023-04-24T12:34:04;5.47;;;1.55;;
7487;SDS011;3785;52.260;4.728;2023-04-24T12:37:42;2.67;;;1.30;;
7487;SDS011;3785;52.260;4.728;2023-04-24T12:41:03;2.97;;;1.25;;
7487;SDS011;3785;52.260;4.728;2023-04-24T12:44:29;4.78;;;1.40;;
7487;SDS011;3785;52.260;4.728;2023-04-24T12:47:54;10.23;;;2.22;;
7487;SDS011;3785;52.260;4.728;2023-04-24T12:51:15;5.45;;;1.30;;
7487;SDS011;3785;52.260;4.728;2023-04-24T12:54:35;7.97;;;1.65;;
7487;SDS011;3785;52.260;4.728;2023-04-24T12:57:56;2.10;;;1.00;;
7487;SDS011;3785;52.260;4.728;2023-04-24T13:01:16;2.40;;;1.02;;
7487;SDS011;3785;52.260;4.728;2023-04-24T13:04:37;10.43;;;1.95;;
7487;SDS011;3785;52.260;4.728;2023-04-24T13:07:57;4.07;;;1.40;;
7487;SDS011;3785;52.260;4.728;2023-04-24T13:11:18;2.92;;;1.23;;
7487;SDS011;3785;52.260;4.728;2023-04-24T13:14:38;6.40;;;1.67;;
7487;SDS011;3785;52.260;4.728;2023-04-24T13:17:59;2.10;;;1.10;;
7487;SDS011;3785;52.260;4.728;2023-04-24T13:21:20;5.78;;;1.52;;
7487;SDS011;3785;52.260;4.728;2023-04-24T13:24:40;5.75;;;1.40;;
7487;SDS011;3785;52.260;4.728;2023-04-24T13:28:01;6.13;;;1.27;;
7487;SDS011;3785;52.260;4.728;2023-04-24T13:31:22;5.53;;;1.55;;
7487;SDS011;3785;52.260;4.728;2023-04-24T13:34:42;3.75;;;1.25;;
7487;SDS011;3785;52.260;4.728;2023-04-24T13:38:03;9.75;;;1.95;;
7487;SDS011;3785;52.260;4.728;2023-04-24T13:41:26;4.05;;;1.70;;
7487;SDS011;3785;52.260;4.728;2023-04-24T13:44:47;9.52;;;2.17;;
7487;SDS011;3785;52.260;4.728;2023-04-24T13:48:07;4.65;;;1.63;;
7487;SDS011;3785;52.260;4.728;2023-04-24T13:51:29;4.90;;;1.17;;
7487;SDS011;3785;52.260;4.728;2023-04-24T13:54:50;5.72;;;1.55;;
7487;SDS011;3785;52.260;4.728;2023-04-24T13:58:10;8.63;;;2.13;;
7487;SDS011;3785;52.260;4.728;2023-04-24T14:01:31;4.07;;;1.60;;
7487;SDS011;3785;52.260;4.728;2023-04-24T14:04:52;5.20;;;1.95;;
7487;SDS011;3785;52.260;4.728;2023-04-24T14:08:12;3.42;;;1.45;;
7487;SDS011;3785;52.260;4.728;2023-04-24T14:11:33;6.55;;;1.73;;
7487;SDS011;3785;52.260;4.728;2023-04-24T14:14:54;8.27;;;1.90;;
7487;SDS011;3785;52.260;4.728;2023-04-24T14:18:15;3.42;;;1.35;;
7487;SDS011;3785;52.260;4.728;2023-04-24T14:21:35;3.55;;;1.45;;
7487;SDS011;3785;52.260;4.728;2023-04-24T14:24:56;4.55;;;1.60;;
7487;SDS011;3785;52.260;4.728;2023-04-24T14:28:18;4.40;;;1.88;;
7487;SDS011;3785;52.260;4.728;2023-04-24T14:31:41;8.65;;;1.83;;
7487;SDS011;3785;52.260;4.728;2023-04-24T14:35:02;4.88;;;1.90;;
7487;SDS011;3785;52.260;4.728;2023-04-24T14:38:23;7.25;;;1.70;;
7487;SDS011;3785;52.260;4.728;2023-04-24T14:41:43;3.80;;;1.42;;
7487;SDS011;3785;52.260;4.728;2023-04-24T14:45:04;8.80;;;1.90;;
7487;SDS011;3785;52.260;4.728;2023-04-24T14:48:25;5.38;;;2.13;;
7487;SDS011;3785;52.260;4.728;2023-04-24T14:51:46;3.47;;;1.30;;
7487;SDS011;3785;52.260;4.728;2023-04-24T14:55:06;5.53;;;1.50;;
7487;SDS011;3785;52.260;4.728;2023-04-24T14:58:27;3.17;;;1.77;;
7487;SDS011;3785;52.260;4.728;2023-04-24T15:01:48;3.20;;;1.45;;
7487;SDS011;3785;52.260;4.728;2023-04-24T15:05:11;5.13;;;1.95;;
7487;SDS011;3785;52.260;4.728;2023-04-24T15:08:32;2.88;;;1.55;;
7487;SDS011;3785;52.260;4.728;2023-04-24T15:11:53;3.30;;;1.60;;
7487;SDS011;3785;52.260;4.728;2023-04-24T15:15:13;5.28;;;1.50;;
7487;SDS011;3785;52.260;4.728;2023-04-24T15:18:34;5.13;;;1.50;;
7487;SDS011;3785;52.260;4.728;2023-04-24T15:21:55;5.15;;;1.60;;
7487;SDS011;3785;52.260;4.728;2023-04-24T15:25:15;7.05;;;1.67;;
7487;SDS011;3785;52.260;4.728;2023-04-24T15:28:36;3.83;;;1.50;;
7487;SDS011;3785;52.260;4.728;2023-04-24T15:31:57;4.85;;;1.58;;
7487;SDS011;3785;52.260;4.728;2023-04-24T15:35:17;4.07;;;2.00;;
7487;SDS011;3785;52.260;4.728;2023-04-24T15:38:38;5.88;;;2.00;;
7487;SDS011;3785;52.260;4.728;2023-04-24T15:41:59;5.90;;;2.00;;
7487;SDS011;3785;52.260;4.728;2023-04-24T15:45:20;6.63;;;2.13;;
7487;SDS011;3785;52.260;4.728;2023-04-24T15:48:44;7.68;;;1.65;;
7487;SDS011;3785;52.260;4.728;2023-04-24T15:52:04;4.78;;;2.08;;
7487;SDS011;3785;52.260;4.728;2023-04-24T15:55:26;6.10;;;1.88;;
7487;SDS011;3785;52.260;4.728;2023-04-24T15:58:47;8.13;;;2.67;;
7487;SDS011;3785;52.260;4.728;2023-04-24T16:02:08;3.75;;;1.40;;
7487;SDS011;3785;52.260;4.728;2023-04-24T16:05:30;6.55;;;2.08;;
7487;SDS011;3785;52.260;4.728;2023-04-24T16:08:52;4.45;;;1.55;;
7487;SDS011;3785;52.260;4.728;2023-04-24T16:12:13;6.93;;;1.83;;
7487;SDS011;3785;52.260;4.728;2023-04-24T16:15:33;7.38;;;2.33;;
7487;SDS011;3785;52.260;4.728;2023-04-24T16:18:55;5.63;;;2.03;;
7487;SDS011;3785;52.260;4.728;2023-04-24T16:22:15;5.72;;;1.52;;
7487;SDS011;3785;52.260;4.728;2023-04-24T16:25:36;10.57;;;2.15;;
7487;SDS011;3785;52.260;4.728;2023-04-24T16:28:57;4.35;;;1.30;;
7487;SDS011;3785;52.260;4.728;2023-04-24T16:32:17;4.75;;;1.52;;
7487;SDS011;3785;52.260;4.728;2023-04-24T16:35:38;5.45;;;1.38;;
7487;SDS011;3785;52.260;4.728;2023-04-24T16:38:58;6.78;;;1.58;;
7487;SDS011;3785;52.260;4.728;2023-04-24T16:42:20;3.55;;;1.45;;
7487;SDS011;3785;52.260;4.728;2023-04-24T16:45:40;3.20;;;1.25;;
7487;SDS011;3785;52.260;4.728;2023-04-24T16:49:01;5.35;;;1.70;;
7487;SDS011;3785;52.260;4.728;2023-04-24T16:52:21;3.72;;;1.38;;
7487;SDS011;3785;52.260;4.728;2023-04-24T16:55:42;6.70;;;1.80;;
7487;SDS011;3785;52.260;4.728;2023-04-24T16:59:03;5.82;;;1.65;;
7487;SDS011;3785;52.260;4.728;2023-04-24T17:02:24;6.50;;;2.40;;
7487;SDS011;3785;52.260;4.728;2023-04-24T17:05:44;5.55;;;1.40;;
7487;SDS011;3785;52.260;4.728;2023-04-24T17:09:05;4.18;;;1.17;;
7487;SDS011;3785;52.260;4.728;2023-04-24T17:12:25;3.83;;;1.20;;
7487;SDS011;3785;52.260;4.728;2023-04-24T17:15:46;4.85;;;1.42;;
7487;SDS011;3785;52.260;4.728;2023-04-24T17:19:06;5.20;;;1.40;;
7487;SDS011;3785;52.260;4.728;2023-04-24T17:22:27;2.85;;;1.08;;
7487;SDS011;3785;52.260;4.728;2023-04-24T17:25:48;3.78;;;1.08;;
7487;SDS011;3785;52.260;4.728;2023-04-24T17:29:08;5.35;;;1.77;;
7487;SDS011;3785;52.260;4.728;2023-04-24T17:32:30;4.22;;;1.20;;
7487;SDS011;3785;52.260;4.728;2023-04-24T17:35:50;6.63;;;1.67;;
7487;SDS011;3785;52.260;4.728;2023-04-24T17:39:11;3.13;;;1.10;;
7487;SDS011;3785;52.260;4.728;2023-04-24T17:42:31;4.72;;;1.25;;
7487;SDS011;3785;52.260;4.728;2023-04-24T17:45:53;2.08;;;0.95;;
7487;SDS011;3785;52.260;4.728;2023-04-24T17:49:19;4.60;;;1.30;;
7487;SDS011;3785;52.260;4.728;2023-04-24T17:52:40;3.47;;;0.95;;
7487;SDS011;3785;52.260;4.728;2023-04-24T17:56:01;1.73;;;0.65;;
7487;SDS011;3785;52.260;4.728;2023-04-24T17:59:22;2.75;;;0.88;;
7487;SDS011;3785;52.260;4.728;2023-04-24T18:02:43;1.92;;;1.10;;
7487;SDS011;3785;52.260;4.728;2023-04-24T18:06:04;3.13;;;0.93;;
7487;SDS011;3785;52.260;4.728;2023-04-24T18:09:25;3.05;;;0.90;;
7487;SDS011;3785;52.260;4.728;2023-04-24T18:12:45;3.85;;;1.40;;
7487;SDS011;3785;52.260;4.728;2023-04-24T18:16:06;1.40;;;0.70;;
7487;SDS011;3785;52.260;4.728;2023-04-24T18:19:27;3.28;;;1.15;;
7487;SDS011;3785;52.260;4.728;2023-04-24T18:22:47;3.28;;;1.17;;
7487;SDS011;3785;52.260;4.728;2023-04-24T18:26:08;3.50;;;0.60;;
7487;SDS011;3785;52.260;4.728;2023-04-24T18:29:29;2.15;;;0.70;;
7487;SDS011;3785;52.260;4.728;2023-04-24T18:32:50;1.33;;;0.47;;
7487;SDS011;3785;52.260;4.728;2023-04-24T18:36:11;1.42;;;0.60;;
7487;SDS011;3785;52.260;4.728;2023-04-24T18:39:32;2.55;;;0.60;;
7487;SDS011;3785;52.260;4.728;2023-04-24T18:42:53;1.35;;;0.80;;
7487;SDS011;3785;52.260;4.728;2023-04-24T18:46:15;2.08;;;0.63;;
7487;SDS011;3785;52.260;4.728;2023-04-24T18:49:36;2.00;;;0.50;;
7487;SDS011;3785;52.260;4.728;2023-04-24T18:52:57;2.58;;;0.60;;
7487;SDS011;3785;52.260;4.728;2023-04-24T18:56:18;2.10;;;0.60;;
7487;SDS011;3785;52.260;4.728;2023-04-24T18:59:38;2.42;;;0.52;;
7487;SDS011;3785;52.260;4.728;2023-04-24T19:02:59;4.65;;;0.98;;
7487;SDS011;3785;52.260;4.728;2023-04-24T19:06:19;3.08;;;0.90;;
7487;SDS011;3785;52.260;4.728;2023-04-24T19:09:40;2.85;;;0.60;;
7487;SDS011;3785;52.260;4.728;2023-04-24T19:13:00;1.58;;;0.60;;
7487;SDS011;3785;52.260;4.728;2023-04-24T19:16:21;5.30;;;1.08;;
7487;SDS011;3785;52.260;4.728;2023-04-24T19:19:42;0.90;;;0.50;;
7487;SDS011;3785;52.260;4.728;2023-04-24T19:23:02;1.60;;;0.90;;
7487;SDS011;3785;52.260;4.728;2023-04-24T19:26:23;2.15;;;0.90;;
7487;SDS011;3785;52.260;4.728;2023-04-24T19:29:44;2.08;;;0.70;;
7487;SDS011;3785;52.260;4.728;2023-04-24T19:33:05;1.75;;;0.80;;
7487;SDS011;3785;52.260;4.728;2023-04-24T19:36:26;2.45;;;1.40;;
7487;SDS011;3785;52.260;4.728;2023-04-24T19:39:47;6.68;;;1.90;;
7487;SDS011;3785;52.260;4.728;2023-04-24T19:43:07;1.23;;;0.60;;
7487;SDS011;3785;52.260;4.728;2023-04-24T19:46:28;3.20;;;0.60;;
7487;SDS011;3785;52.260;4.728;2023-04-24T19:49:48;5.30;;;1.33;;
7487;SDS011;3785;52.260;4.728;2023-04-24T19:53:09;1.38;;;0.68;;
7487;SDS011;3785;52.260;4.728;2023-04-24T19:56:31;2.53;;;0.70;;
7487;SDS011;3785;52.260;4.728;2023-04-24T19:59:52;3.60;;;0.60;;
7487;SDS011;3785;52.260;4.728;2023-04-24T20:03:12;0.80;;;0.50;;
7487;SDS011;3785;52.260;4.728;2023-04-24T20:06:33;1.65;;;0.93;;
7487;SDS011;3785;52.260;4.728;2023-04-24T20:09:53;1.58;;;1.10;;
7487;SDS011;3785;52.260;4.728;2023-04-24T20:13:14;0.77;;;0.50;;
7487;SDS011;3785;52.260;4.728;2023-04-24T20:16:34;2.22;;;0.57;;
7487;SDS011;3785;52.260;4.728;2023-04-24T20:19:55;2.38;;;0.80;;
7487;SDS011;3785;52.260;4.728;2023-04-24T20:23:15;3.47;;;1.08;;
7487;SDS011;3785;52.260;4.728;2023-04-24T20:26:36;6.35;;;1.10;;
7487;SDS011;3785;52.260;4.728;2023-04-24T20:29:57;2.20;;;0.70;;
7487;SDS011;3785;52.260;4.728;2023-04-24T20:33:18;3.80;;;1.10;;
7487;SDS011;3785;52.260;4.728;2023-04-24T20:36:39;1.08;;;0.50;;
7487;SDS011;3785;52.260;4.728;2023-04-24T20:40:00;3.88;;;0.88;;
7487;SDS011;3785;52.260;4.728;2023-04-24T20:43:24;4.35;;;0.65;;
7487;SDS011;3785;52.260;4.728;2023-04-24T20:46:48;4.05;;;1.00;;
7487;SDS011;3785;52.260;4.728;2023-04-24T20:50:08;2.20;;;0.88;;
7487;SDS011;3785;52.260;4.728;2023-04-24T20:53:29;3.08;;;0.90;;
7487;SDS011;3785;52.260;4.728;2023-04-24T20:56:50;4.93;;;1.13;;